sensor_id;sensor_type;location;lat;lon;timestamp;pressure;altitude;pressure_sealevel;temperature;humidity
65557;BME280;52200;53.490;14.376;2023-02-12T00:02:16;103161.97;;;3.45;93.01
65557;BME280;52200;53.490;14.376;2023-02-12T00:04:41;103158.56;;;3.43;93.02
65557;BME280;52200;53.490;14.376;2023-02-12T00:07:07;103160.59;;;3.32;92.45
65557;BME280;52200;53.490;14.376;2023-02-12T00:09:32;103169.91;;;3.35;92.43
65557;BME280;52200;53.490;14.376;2023-02-12T00:11:57;103161.78;;;3.21;92.47
65557;BME280;52200;53.490;14.376;2023-02-12T00:14:23;103163.16;;;3.14;91.64
65557;BME280;52200;53.490;14.376;2023-02-12T00:16:48;103165.41;;;3.08;92.22
65557;BME280;52200;53.490;14.376;2023-02-12T00:19:14;103158.25;;;2.98;91.49
65557;BME280;52200;53.490;14.376;2023-02-12T00:21:39;103165.47;;;2.90;91.74
65557;BME280;52200;53.490;14.376;2023-02-12T00:24:04;103164.59;;;2.89;92.24
65557;BME280;52200;53.490;14.376;2023-02-12T00:26:30;103175.44;;;2.88;91.33
65557;BME280;52200;53.490;14.376;2023-02-12T00:28:55;103177.13;;;2.70;91.31
65557;BME280;52200;53.490;14.376;2023-02-12T00:31:23;103180.75;;;2.58;91.66
65557;BME280;52200;53.490;14.376;2023-02-12T00:33:50;103183.19;;;2.57;91.54
65557;BME280;52200;53.490;14.376;2023-02-12T00:36:18;103190.00;;;2.60;90.64
65557;BME280;52200;53.490;14.376;2023-02-12T00:38:44;103191.44;;;2.54;90.85
65557;BME280;52200;53.490;14.376;2023-02-12T00:41:10;103192.94;;;2.51;91.43
65557;BME280;52200;53.490;14.376;2023-02-12T00:43:36;103189.63;;;2.34;91.08
65557;BME280;52200;53.490;14.376;2023-02-12T00:46:02;103184.84;;;2.20;91.50
65557;BME280;52200;53.490;14.376;2023-02-12T00:48:29;103182.19;;;2.17;91.06
65557;BME280;52200;53.490;14.376;2023-02-12T00:50:55;103188.63;;;2.12;90.86
65557;BME280;52200;53.490;14.376;2023-02-12T00:53:20;103186.75;;;2.08;90.58
65557;BME280;52200;53.490;14.376;2023-02-12T00:55:45;103189.56;;;2.14;90.10
65557;BME280;52200;53.490;14.376;2023-02-12T00:58:11;103190.19;;;2.10;89.28
65557;BME280;52200;53.490;14.376;2023-02-12T01:00:36;103188.81;;;1.99;89.64
65557;BME280;52200;53.490;14.376;2023-02-12T01:03:02;103189.34;;;1.93;89.99
65557;BME280;52200;53.490;14.376;2023-02-12T01:05:28;103191.66;;;1.88;89.74
65557;BME280;52200;53.490;14.376;2023-02-12T01:07:55;103205.81;;;1.88;89.90
65557;BME280;52200;53.490;14.376;2023-02-12T01:10:20;103208.19;;;1.85;90.08
65557;BME280;52200;53.490;14.376;2023-02-12T01:12:46;103216.25;;;1.79;89.88
65557;BME280;52200;53.490;14.376;2023-02-12T01:15:12;103227.69;;;1.74;90.36
65557;BME280;52200;53.490;14.376;2023-02-12T01:17:38;103222.06;;;1.61;90.42
65557;BME280;52200;53.490;14.376;2023-02-12T01:20:05;103225.66;;;1.83;90.36
65557;BME280;52200;53.490;14.376;2023-02-12T01:22:33;103232.69;;;1.90;90.13
65557;BME280;52200;53.490;14.376;2023-02-12T01:24:59;103235.66;;;2.00;89.55
65557;BME280;52200;53.490;14.376;2023-02-12T01:27:24;103241.13;;;2.09;90.19
65557;BME280;52200;53.490;14.376;2023-02-12T01:29:50;103239.50;;;2.28;91.19
65557;BME280;52200;53.490;14.376;2023-02-12T01:32:15;103238.81;;;2.48;91.55
65557;BME280;52200;53.490;14.376;2023-02-12T01:34:41;103240.34;;;2.63;93.32
65557;BME280;52200;53.490;14.376;2023-02-12T01:37:06;103241.44;;;2.86;94.39
65557;BME280;52200;53.490;14.376;2023-02-12T01:39:32;103240.63;;;3.05;95.39
65557;BME280;52200;53.490;14.376;2023-02-12T01:41:57;103244.47;;;3.16;95.73
65557;BME280;52200;53.490;14.376;2023-02-12T01:44:24;103244.22;;;3.30;96.15
65557;BME280;52200;53.490;14.376;2023-02-12T01:46:57;103239.09;;;3.46;95.94
65557;BME280;52200;53.490;14.376;2023-02-12T01:49:26;103238.44;;;3.50;97.27
65557;BME280;52200;53.490;14.376;2023-02-12T01:52:05;103250.72;;;3.64;97.94
65557;BME280;52200;53.490;14.376;2023-02-12T01:54:34;103243.69;;;3.76;98.39
65557;BME280;52200;53.490;14.376;2023-02-12T01:57:02;103243.06;;;3.80;98.83
65557;BME280;52200;53.490;14.376;2023-02-12T01:59:30;103242.16;;;3.99;99.06
65557;BME280;52200;53.490;14.376;2023-02-12T02:01:55;103249.22;;;4.08;99.09
65557;BME280;52200;53.490;14.376;2023-02-12T02:04:26;103244.88;;;4.04;100.00
65557;BME280;52200;53.490;14.376;2023-02-12T02:06:57;103250.97;;;3.90;100.00
65557;BME280;52200;53.490;14.376;2023-02-12T02:09:23;103255.75;;;3.83;100.00
65557;BME280;52200;53.490;14.376;2023-02-12T02:11:49;103255.22;;;3.71;100.00
65557;BME280;52200;53.490;14.376;2023-02-12T02:14:34;103261.19;;;3.73;100.00
65557;BME280;52200;53.490;14.376;2023-02-12T02:17:19;103260.44;;;3.95;100.00
65557;BME280;52200;53.490;14.376;2023-02-12T02:26:00;103261.72;;;4.26;100.00
65557;BME280;52200;53.490;14.376;2023-02-12T02:31:37;103259.16;;;4.25;100.00
65557;BME280;52200;53.490;14.376;2023-02-12T02:36:50;103255.75;;;4.45;100.00
65557;BME280;52200;53.490;14.376;2023-02-12T02:39:19;103266.50;;;4.41;100.00
65557;BME280;52200;53.490;14.376;2023-02-12T02:41:58;103264.44;;;4.52;100.00
65557;BME280;52200;53.490;14.376;2023-02-12T02:44:37;103259.75;;;4.19;100.00
65557;BME280;52200;53.490;14.376;2023-02-12T02:47:08;103266.41;;;4.38;100.00
65557;BME280;52200;53.490;14.376;2023-02-12T02:49:43;103264.94;;;4.43;100.00
65557;BME280;52200;53.490;14.376;2023-02-12T02:52:14;103261.97;;;4.54;100.00
65557;BME280;52200;53.490;14.376;2023-02-12T02:54:45;103267.50;;;4.66;100.00
65557;BME280;52200;53.490;14.376;2023-02-12T02:59:52;103273.13;;;4.81;100.00
65557;BME280;52200;53.490;14.376;2023-02-12T03:02:30;103275.09;;;4.46;100.00
65557;BME280;52200;53.490;14.376;2023-02-12T03:05:16;103282.25;;;4.57;100.00
65557;BME280;52200;53.490;14.376;2023-02-12T03:07:49;103279.41;;;4.49;100.00
65557;BME280;52200;53.490;14.376;2023-02-12T03:10:20;103285.13;;;4.66;100.00
65557;BME280;52200;53.490;14.376;2023-02-12T03:13:06;103289.72;;;4.34;100.00
65557;BME280;52200;53.490;14.376;2023-02-12T03:15:46;103294.50;;;4.28;100.00
65557;BME280;52200;53.490;14.376;2023-02-12T03:18:19;103287.44;;;4.61;100.00
65557;BME280;52200;53.490;14.376;2023-02-12T03:20:51;103291.13;;;4.70;100.00
65557;BME280;52200;53.490;14.376;2023-02-12T03:23:25;103297.94;;;4.72;100.00
65557;BME280;52200;53.490;14.376;2023-02-12T03:26:05;103303.59;;;4.45;100.00
65557;BME280;52200;53.490;14.376;2023-02-12T03:28:35;103309.59;;;4.70;100.00
65557;BME280;52200;53.490;14.376;2023-02-12T03:31:09;103304.94;;;4.37;100.00
65557;BME280;52200;53.490;14.376;2023-02-12T03:36:31;103309.84;;;4.34;100.00
65557;BME280;52200;53.490;14.376;2023-02-12T03:39:48;103302.56;;;4.20;100.00
65557;BME280;52200;53.490;14.376;2023-02-12T03:42:10;103313.16;;;4.33;100.00
65557;BME280;52200;53.490;14.376;2023-02-12T03:44:47;103315.56;;;4.72;100.00
65557;BME280;52200;53.490;14.376;2023-02-12T03:47:26;103323.13;;;4.72;100.00
65557;BME280;52200;53.490;14.376;2023-02-12T03:50:10;103327.16;;;4.47;100.00
65557;BME280;52200;53.490;14.376;2023-02-12T03:52:37;103326.81;;;4.80;100.00
65557;BME280;52200;53.490;14.376;2023-02-12T03:55:03;103327.78;;;5.05;100.00
65557;BME280;52200;53.490;14.376;2023-02-12T03:57:33;103324.94;;;5.19;100.00
65557;BME280;52200;53.490;14.376;2023-02-12T04:00:07;103320.84;;;4.78;100.00
65557;BME280;52200;53.490;14.376;2023-02-12T04:02:33;103311.69;;;5.02;100.00
65557;BME280;52200;53.490;14.376;2023-02-12T04:05:06;103315.53;;;5.14;100.00
65557;BME280;52200;53.490;14.376;2023-02-12T04:07:33;103326.75;;;5.23;100.00
65557;BME280;52200;53.490;14.376;2023-02-12T04:09:59;103329.75;;;5.35;100.00
65557;BME280;52200;53.490;14.376;2023-02-12T04:12:38;103337.63;;;5.44;99.79
65557;BME280;52200;53.490;14.376;2023-02-12T04:15:15;103336.75;;;5.42;99.87
65557;BME280;52200;53.490;14.376;2023-02-12T04:20:23;103331.19;;;5.51;99.14
65557;BME280;52200;53.490;14.376;2023-02-12T04:31:31;103340.59;;;5.57;97.71
65557;BME280;52200;53.490;14.376;2023-02-12T04:36:36;103352.72;;;5.65;97.48
65557;BME280;52200;53.490;14.376;2023-02-12T04:39:09;103348.53;;;5.66;97.10
65557;BME280;52200;53.490;14.376;2023-02-12T04:41:39;103349.50;;;5.70;97.14
65557;BME280;52200;53.490;14.376;2023-02-12T04:44:20;103346.19;;;5.71;96.60
65557;BME280;52200;53.490;14.376;2023-02-12T04:46:46;103348.56;;;5.68;96.61
65557;BME280;52200;53.490;14.376;2023-02-12T04:49:17;103347.78;;;5.69;95.79
65557;BME280;52200;53.490;14.376;2023-02-12T04:51:43;103346.22;;;5.72;95.98
65557;BME280;52200;53.490;14.376;2023-02-12T04:54:09;103358.84;;;5.72;96.07
65557;BME280;52200;53.490;14.376;2023-02-12T04:56:34;103353.78;;;5.72;95.32
65557;BME280;52200;53.490;14.376;2023-02-12T04:59:00;103363.88;;;5.72;95.37
65557;BME280;52200;53.490;14.376;2023-02-12T05:01:25;103362.38;;;5.77;94.68
65557;BME280;52200;53.490;14.376;2023-02-12T05:03:51;103367.19;;;5.71;94.76
65557;BME280;52200;53.490;14.376;2023-02-12T05:06:17;103368.00;;;5.70;95.00
65557;BME280;52200;53.490;14.376;2023-02-12T05:08:42;103364.69;;;5.71;95.04
65557;BME280;52200;53.490;14.376;2023-02-12T05:11:09;103366.22;;;5.68;95.48
65557;BME280;52200;53.490;14.376;2023-02-12T05:13:35;103366.19;;;5.66;95.34
65557;BME280;52200;53.490;14.376;2023-02-12T05:16:05;103377.63;;;5.58;96.18
65557;BME280;52200;53.490;14.376;2023-02-12T05:18:31;103376.31;;;5.68;95.34
65557;BME280;52200;53.490;14.376;2023-02-12T05:20:57;103379.19;;;5.54;96.26
65557;BME280;52200;53.490;14.376;2023-02-12T05:23:27;103374.53;;;5.65;97.01
65557;BME280;52200;53.490;14.376;2023-02-12T05:25:53;103379.03;;;5.49;97.94
65557;BME280;52200;53.490;14.376;2023-02-12T05:28:19;103373.34;;;5.55;97.62
65557;BME280;52200;53.490;14.376;2023-02-12T05:30:44;103372.38;;;5.52;97.77
65557;BME280;52200;53.490;14.376;2023-02-12T05:33:10;103370.19;;;5.61;97.44
65557;BME280;52200;53.490;14.376;2023-02-12T05:35:35;103376.38;;;5.46;98.60
65557;BME280;52200;53.490;14.376;2023-02-12T05:38:00;103381.09;;;5.60;98.38
65557;BME280;52200;53.490;14.376;2023-02-12T05:40:26;103379.53;;;5.63;97.99
65557;BME280;52200;53.490;14.376;2023-02-12T05:42:51;103379.13;;;5.30;99.47
65557;BME280;52200;53.490;14.376;2023-02-12T05:45:16;103381.66;;;5.53;99.99
65557;BME280;52200;53.490;14.376;2023-02-12T05:47:41;103386.00;;;5.57;99.25
65557;BME280;52200;53.490;14.376;2023-02-12T05:50:07;103389.22;;;5.53;99.85
65557;BME280;52200;53.490;14.376;2023-02-12T05:52:33;103389.44;;;5.36;100.00
65557;BME280;52200;53.490;14.376;2023-02-12T05:54:58;103382.13;;;5.42;100.00
65557;BME280;52200;53.490;14.376;2023-02-12T05:57:23;103388.81;;;5.42;100.00
65557;BME280;52200;53.490;14.376;2023-02-12T05:59:49;103392.72;;;5.56;100.00
65557;BME280;52200;53.490;14.376;2023-02-12T06:02:14;103394.13;;;5.27;100.00
65557;BME280;52200;53.490;14.376;2023-02-12T06:04:39;103400.13;;;5.30;100.00
65557;BME280;52200;53.490;14.376;2023-02-12T06:07:05;103403.31;;;5.47;100.00
65557;BME280;52200;53.490;14.376;2023-02-12T06:09:32;103398.97;;;5.66;100.00
65557;BME280;52200;53.490;14.376;2023-02-12T06:11:59;103403.03;;;5.62;100.00
65557;BME280;52200;53.490;14.376;2023-02-12T06:14:25;103406.63;;;5.46;100.00
65557;BME280;52200;53.490;14.376;2023-02-12T06:16:50;103404.56;;;5.36;100.00
65557;BME280;52200;53.490;14.376;2023-02-12T06:19:16;103411.81;;;5.49;100.00
65557;BME280;52200;53.490;14.376;2023-02-12T06:21:42;103411.25;;;5.36;100.00
65557;BME280;52200;53.490;14.376;2023-02-12T06:24:09;103417.88;;;5.55;100.00
65557;BME280;52200;53.490;14.376;2023-02-12T06:26:35;103423.72;;;5.54;100.00
65557;BME280;52200;53.490;14.376;2023-02-12T06:29:01;103416.31;;;5.81;100.00
65557;BME280;52200;53.490;14.376;2023-02-12T06:31:29;103424.75;;;5.81;100.00
65557;BME280;52200;53.490;14.376;2023-02-12T06:33:59;103415.22;;;5.97;99.86
65557;BME280;52200;53.490;14.376;2023-02-12T06:36:24;103418.28;;;5.88;99.71
65557;BME280;52200;53.490;14.376;2023-02-12T06:38:50;103416.25;;;6.01;99.64
65557;BME280;52200;53.490;14.376;2023-02-12T06:41:15;103409.16;;;5.92;99.20
65557;BME280;52200;53.490;14.376;2023-02-12T06:43:41;103414.88;;;5.88;99.29
65557;BME280;52200;53.490;14.376;2023-02-12T06:46:08;103420.84;;;5.90;100.00
65557;BME280;52200;53.490;14.376;2023-02-12T06:48:35;103422.34;;;5.85;100.00
65557;BME280;52200;53.490;14.376;2023-02-12T06:51:10;103420.63;;;6.06;100.00
65557;BME280;52200;53.490;14.376;2023-02-12T06:53:36;103420.78;;;6.11;99.00
65557;BME280;52200;53.490;14.376;2023-02-12T06:56:03;103427.13;;;6.00;99.04
65557;BME280;52200;53.490;14.376;2023-02-12T06:58:29;103428.28;;;6.08;99.10
65557;BME280;52200;53.490;14.376;2023-02-12T07:00:54;103446.13;;;5.91;99.32
65557;BME280;52200;53.490;14.376;2023-02-12T07:03:20;103449.88;;;6.01;99.46
65557;BME280;52200;53.490;14.376;2023-02-12T07:05:45;103452.53;;;6.04;99.82
65557;BME280;52200;53.490;14.376;2023-02-12T07:08:12;103445.94;;;6.08;99.93
65557;BME280;52200;53.490;14.376;2023-02-12T07:10:38;103444.78;;;6.00;100.00
65557;BME280;52200;53.490;14.376;2023-02-12T07:13:04;103443.25;;;6.03;100.00
65557;BME280;52200;53.490;14.376;2023-02-12T07:15:29;103453.75;;;6.14;100.00
65557;BME280;52200;53.490;14.376;2023-02-12T07:17:54;103459.31;;;6.29;99.63
65557;BME280;52200;53.490;14.376;2023-02-12T07:20:20;103454.13;;;6.49;98.39
65557;BME280;52200;53.490;14.376;2023-02-12T07:22:45;103460.41;;;6.36;98.49
65557;BME280;52200;53.490;14.376;2023-02-12T07:25:10;103452.31;;;6.45;98.43
65557;BME280;52200;53.490;14.376;2023-02-12T07:27:36;103456.75;;;6.28;98.25
65557;BME280;52200;53.490;14.376;2023-02-12T07:30:03;103460.47;;;6.38;98.83
65557;BME280;52200;53.490;14.376;2023-02-12T07:32:33;103462.66;;;6.53;98.66
65557;BME280;52200;53.490;14.376;2023-02-12T07:34:59;103472.75;;;6.53;98.88
65557;BME280;52200;53.490;14.376;2023-02-12T07:37:25;103473.94;;;6.38;99.33
65557;BME280;52200;53.490;14.376;2023-02-12T07:39:50;103472.97;;;6.35;99.57
65557;BME280;52200;53.490;14.376;2023-02-12T07:42:16;103474.44;;;6.52;99.35
65557;BME280;52200;53.490;14.376;2023-02-12T07:44:43;103484.25;;;6.69;98.18
65557;BME280;52200;53.490;14.376;2023-02-12T07:47:09;103480.19;;;6.72;97.71
65557;BME280;52200;53.490;14.376;2023-02-12T07:49:34;103478.34;;;6.44;98.61
65557;BME280;52200;53.490;14.376;2023-02-12T07:51:59;103473.34;;;6.45;99.03
65557;BME280;52200;53.490;14.376;2023-02-12T07:54:25;103478.94;;;6.61;98.72
65557;BME280;52200;53.490;14.376;2023-02-12T07:56:50;103481.69;;;6.43;98.69
65557;BME280;52200;53.490;14.376;2023-02-12T07:59:17;103487.78;;;6.50;99.00
65557;BME280;52200;53.490;14.376;2023-02-12T08:01:52;103495.34;;;6.72;98.10
65557;BME280;52200;53.490;14.376;2023-02-12T08:04:21;103492.50;;;6.89;97.03
65557;BME280;52200;53.490;14.376;2023-02-12T08:06:49;103494.56;;;6.99;96.14
65557;BME280;52200;53.490;14.376;2023-02-12T08:09:17;103491.66;;;6.88;96.25
65557;BME280;52200;53.490;14.376;2023-02-12T08:11:43;103495.44;;;6.75;97.10
65557;BME280;52200;53.490;14.376;2023-02-12T08:14:11;103492.72;;;6.95;95.95
65557;BME280;52200;53.490;14.376;2023-02-12T08:16:38;103497.69;;;6.92;96.25
65557;BME280;52200;53.490;14.376;2023-02-12T08:19:04;103498.88;;;6.77;96.56
65557;BME280;52200;53.490;14.376;2023-02-12T08:21:29;103498.06;;;6.78;96.84
65557;BME280;52200;53.490;14.376;2023-02-12T08:23:56;103497.69;;;6.92;96.90
65557;BME280;52200;53.490;14.376;2023-02-12T08:26:30;103500.22;;;6.92;96.95
65557;BME280;52200;53.490;14.376;2023-02-12T08:29:01;103504.47;;;6.93;96.55
65557;BME280;52200;53.490;14.376;2023-02-12T08:31:29;103510.22;;;7.15;95.29
65557;BME280;52200;53.490;14.376;2023-02-12T08:33:55;103511.47;;;6.76;96.16
65557;BME280;52200;53.490;14.376;2023-02-12T08:36:30;103509.94;;;7.05;95.28
65557;BME280;52200;53.490;14.376;2023-02-12T08:38:58;103507.09;;;7.22;94.70
65557;BME280;52200;53.490;14.376;2023-02-12T08:41:27;103506.31;;;7.24;94.79
65557;BME280;52200;53.490;14.376;2023-02-12T08:43:54;103513.84;;;7.49;94.08
65557;BME280;52200;53.490;14.376;2023-02-12T08:46:26;103504.78;;;7.55;93.63
65557;BME280;52200;53.490;14.376;2023-02-12T08:48:54;103507.75;;;7.71;93.95
65557;BME280;52200;53.490;14.376;2023-02-12T08:51:23;103505.09;;;7.66;92.34
65557;BME280;52200;53.490;14.376;2023-02-12T08:53:52;103505.94;;;7.67;92.49
65557;BME280;52200;53.490;14.376;2023-02-12T08:56:18;103494.03;;;7.63;91.82
65557;BME280;52200;53.490;14.376;2023-02-12T08:58:44;103507.19;;;7.52;92.30
65557;BME280;52200;53.490;14.376;2023-02-12T09:01:12;103510.47;;;7.77;92.13
65557;BME280;52200;53.490;14.376;2023-02-12T09:03:38;103516.91;;;7.95;91.25
65557;BME280;52200;53.490;14.376;2023-02-12T09:06:05;103516.00;;;7.93;90.93
65557;BME280;52200;53.490;14.376;2023-02-12T09:08:32;103515.22;;;8.24;90.05
65557;BME280;52200;53.490;14.376;2023-02-12T09:10:58;103515.38;;;8.30;89.93
65557;BME280;52200;53.490;14.376;2023-02-12T09:13:24;103521.13;;;8.23;89.52
65557;BME280;52200;53.490;14.376;2023-02-12T09:15:49;103519.00;;;8.38;88.94
65557;BME280;52200;53.490;14.376;2023-02-12T09:18:14;103526.72;;;8.42;88.54
65557;BME280;52200;53.490;14.376;2023-02-12T09:20:43;103530.34;;;8.21;89.01
65557;BME280;52200;53.490;14.376;2023-02-12T09:23:11;103522.09;;;8.28;88.68
65557;BME280;52200;53.490;14.376;2023-02-12T09:25:42;103520.91;;;8.46;88.33
65557;BME280;52200;53.490;14.376;2023-02-12T09:28:08;103534.19;;;8.38;87.52
65557;BME280;52200;53.490;14.376;2023-02-12T09:30:35;103528.66;;;8.50;87.29
65557;BME280;52200;53.490;14.376;2023-02-12T09:33:01;103535.78;;;8.64;86.89
65557;BME280;52200;53.490;14.376;2023-02-12T09:35:26;103538.66;;;8.17;87.72
65557;BME280;52200;53.490;14.376;2023-02-12T09:37:52;103535.28;;;8.18;88.84
65557;BME280;52200;53.490;14.376;2023-02-12T09:40:21;103545.97;;;8.36;88.02
65557;BME280;52200;53.490;14.376;2023-02-12T09:43:02;103545.94;;;8.06;88.16
65557;BME280;52200;53.490;14.376;2023-02-12T09:45:36;103547.16;;;8.19;88.42
65557;BME280;52200;53.490;14.376;2023-02-12T09:50:59;103551.59;;;8.87;87.25
65557;BME280;52200;53.490;14.376;2023-02-12T09:53:29;103550.03;;;8.92;85.88
65557;BME280;52200;53.490;14.376;2023-02-12T09:55:55;103540.63;;;8.88;85.63
65557;BME280;52200;53.490;14.376;2023-02-12T09:59:00;103544.16;;;8.93;85.31
65557;BME280;52200;53.490;14.376;2023-02-12T10:01:28;103545.38;;;8.76;84.57
65557;BME280;52200;53.490;14.376;2023-02-12T10:03:54;103541.69;;;8.64;85.44
65557;BME280;52200;53.490;14.376;2023-02-12T10:06:34;103543.59;;;8.71;85.63
65557;BME280;52200;53.490;14.376;2023-02-12T10:09:22;103546.59;;;8.58;85.26
65557;BME280;52200;53.490;14.376;2023-02-12T10:11:59;103554.69;;;8.16;87.59
65557;BME280;52200;53.490;14.376;2023-02-12T10:20:20;103551.97;;;8.40;87.14
65557;BME280;52200;53.490;14.376;2023-02-12T10:23:15;103541.88;;;8.70;86.48
65557;BME280;52200;53.490;14.376;2023-02-12T10:25:49;103544.47;;;8.74;86.14
65557;BME280;52200;53.490;14.376;2023-02-12T10:28:24;103542.53;;;8.97;85.79
65557;BME280;52200;53.490;14.376;2023-02-12T10:30:54;103541.44;;;8.87;85.74
65557;BME280;52200;53.490;14.376;2023-02-12T10:33:45;103545.03;;;8.94;86.18
65557;BME280;52200;53.490;14.376;2023-02-12T10:39:21;103539.97;;;8.63;85.69
65557;BME280;52200;53.490;14.376;2023-02-12T10:42:02;103537.66;;;8.71;86.27
65557;BME280;52200;53.490;14.376;2023-02-12T10:44:32;103543.25;;;8.59;87.11
65557;BME280;52200;53.490;14.376;2023-02-12T10:46:58;103546.91;;;8.69;86.75
65557;BME280;52200;53.490;14.376;2023-02-12T10:49:23;103546.34;;;8.49;87.98
65557;BME280;52200;53.490;14.376;2023-02-12T10:52:07;103547.09;;;8.46;88.88
65557;BME280;52200;53.490;14.376;2023-02-12T10:54:38;103546.81;;;8.35;88.04
65557;BME280;52200;53.490;14.376;2023-02-12T10:57:09;103552.69;;;8.34;89.49
65557;BME280;52200;53.490;14.376;2023-02-12T10:59:37;103544.41;;;8.11;90.83
65557;BME280;52200;53.490;14.376;2023-02-12T11:02:02;103541.88;;;7.82;91.39
65557;BME280;52200;53.490;14.376;2023-02-12T11:04:31;103544.69;;;7.93;91.20
65557;BME280;52200;53.490;14.376;2023-02-12T11:07:06;103539.25;;;7.81;92.15
65557;BME280;52200;53.490;14.376;2023-02-12T11:09:41;103538.59;;;7.86;92.86
65557;BME280;52200;53.490;14.376;2023-02-12T11:12:19;103535.66;;;7.72;93.07
65557;BME280;52200;53.490;14.376;2023-02-12T11:14:50;103531.94;;;7.88;93.29
65557;BME280;52200;53.490;14.376;2023-02-12T11:17:26;103534.56;;;7.93;92.66
65557;BME280;52200;53.490;14.376;2023-02-12T11:20:05;103529.44;;;7.90;92.96
65557;BME280;52200;53.490;14.376;2023-02-12T11:22:34;103532.69;;;7.86;93.35
65557;BME280;52200;53.490;14.376;2023-02-12T11:25:13;103529.25;;;8.13;93.21
65557;BME280;52200;53.490;14.376;2023-02-12T11:27:40;103537.53;;;8.07;92.89
65557;BME280;52200;53.490;14.376;2023-02-12T11:32:34;103536.91;;;7.87;93.44
65557;BME280;52200;53.490;14.376;2023-02-12T11:35:18;103532.59;;;7.55;94.91
65557;BME280;52200;53.490;14.376;2023-02-12T11:37:50;103531.69;;;7.53;94.41
65557;BME280;52200;53.490;14.376;2023-02-12T11:40:22;103527.59;;;7.31;96.16
65557;BME280;52200;53.490;14.376;2023-02-12T11:42:51;103538.34;;;7.24;96.93
65557;BME280;52200;53.490;14.376;2023-02-12T11:45:20;103532.38;;;7.48;97.06
65557;BME280;52200;53.490;14.376;2023-02-12T11:47:47;103529.63;;;7.41;96.55
65557;BME280;52200;53.490;14.376;2023-02-12T11:50:27;103523.69;;;7.68;95.91
65557;BME280;52200;53.490;14.376;2023-02-12T11:53:01;103518.03;;;7.75;94.95
65557;BME280;52200;53.490;14.376;2023-02-12T11:55:35;103517.66;;;8.21;94.05
65557;BME280;52200;53.490;14.376;2023-02-12T11:58:13;103518.75;;;8.60;92.93
65557;BME280;52200;53.490;14.376;2023-02-12T12:01:03;103518.09;;;8.65;91.10
65557;BME280;52200;53.490;14.376;2023-02-12T12:03:44;103516.16;;;8.28;91.62
65557;BME280;52200;53.490;14.376;2023-02-12T12:06:52;103527.88;;;8.24;90.89
65557;BME280;52200;53.490;14.376;2023-02-12T12:09:24;103526.44;;;8.02;92.42
65557;BME280;52200;53.490;14.376;2023-02-12T12:12:03;103520.44;;;8.00;93.16
65557;BME280;52200;53.490;14.376;2023-02-12T12:14:55;103510.41;;;8.33;91.87
65557;BME280;52200;53.490;14.376;2023-02-12T12:17:55;103513.94;;;8.38;92.21
65557;BME280;52200;53.490;14.376;2023-02-12T12:20:51;103508.31;;;8.49;91.86
65557;BME280;52200;53.490;14.376;2023-02-12T12:23:24;103504.94;;;8.48;91.20
65557;BME280;52200;53.490;14.376;2023-02-12T12:26:00;103497.19;;;8.74;90.40
65557;BME280;52200;53.490;14.376;2023-02-12T12:28:36;103497.25;;;9.11;88.97
65557;BME280;52200;53.490;14.376;2023-02-12T12:31:26;103499.09;;;9.18;87.93
65557;BME280;52200;53.490;14.376;2023-02-12T12:34:06;103504.63;;;9.36;87.28
65557;BME280;52200;53.490;14.376;2023-02-12T12:36:42;103493.72;;;9.06;87.71
65557;BME280;52200;53.490;14.376;2023-02-12T12:48:12;103480.19;;;9.40;86.27
65557;BME280;52200;53.490;14.376;2023-02-12T12:51:11;103473.91;;;9.62;85.41
65557;BME280;52200;53.490;14.376;2023-02-12T12:59:15;103467.47;;;9.78;84.01
65557;BME280;52200;53.490;14.376;2023-02-12T13:07:15;103472.03;;;9.93;82.71
65557;BME280;52200;53.490;14.376;2023-02-12T13:15:31;103453.94;;;9.78;83.25
65557;BME280;52200;53.490;14.376;2023-02-12T13:26:23;103452.38;;;10.27;80.46
65557;BME280;52200;53.490;14.376;2023-02-12T13:29:00;103453.00;;;10.15;81.38
65557;BME280;52200;53.490;14.376;2023-02-12T13:31:29;103449.06;;;10.31;81.24
65557;BME280;52200;53.490;14.376;2023-02-12T13:34:00;103459.47;;;10.44;80.29
65557;BME280;52200;53.490;14.376;2023-02-12T13:36:26;103441.78;;;10.50;80.26
65557;BME280;52200;53.490;14.376;2023-02-12T13:41:44;103452.88;;;9.66;80.90
65557;BME280;52200;53.490;14.376;2023-02-12T13:44:26;103453.97;;;9.79;81.42
65557;BME280;52200;53.490;14.376;2023-02-12T13:47:12;103445.25;;;10.11;81.03
65557;BME280;52200;53.490;14.376;2023-02-12T13:50:04;103448.72;;;10.13;81.26
65557;BME280;52200;53.490;14.376;2023-02-12T13:52:46;103442.44;;;9.95;81.50
65557;BME280;52200;53.490;14.376;2023-02-12T13:55:32;103444.22;;;9.58;81.05
65557;BME280;52200;53.490;14.376;2023-02-12T14:01:04;103441.41;;;9.46;82.37
65557;BME280;52200;53.490;14.376;2023-02-12T14:03:31;103444.59;;;9.37;82.86
65557;BME280;52200;53.490;14.376;2023-02-12T14:06:15;103451.16;;;9.27;82.49
65557;BME280;52200;53.490;14.376;2023-02-12T14:08:43;103442.16;;;9.03;82.50
65557;BME280;52200;53.490;14.376;2023-02-12T14:11:18;103451.25;;;9.32;82.69
65557;BME280;52200;53.490;14.376;2023-02-12T14:13:57;103449.16;;;9.15;82.49
65557;BME280;52200;53.490;14.376;2023-02-12T14:21:56;103451.53;;;8.73;83.50
65557;BME280;52200;53.490;14.376;2023-02-12T14:27:21;103445.34;;;8.96;82.85
65557;BME280;52200;53.490;14.376;2023-02-12T14:35:31;103456.16;;;8.89;82.99
65557;BME280;52200;53.490;14.376;2023-02-12T14:45:48;103451.72;;;9.17;81.89
65557;BME280;52200;53.490;14.376;2023-02-12T14:51:04;103454.81;;;9.03;81.05
65557;BME280;52200;53.490;14.376;2023-02-12T14:53:34;103449.25;;;9.18;81.49
65557;BME280;52200;53.490;14.376;2023-02-12T14:56:02;103449.13;;;9.14;81.79